Jiangjin, China
Current Conditions -  °F | °C
As of 4:00 AM on Monday 26 Jan 2015 (Local Time) from ZUCK Reporting Station
Haze Haze  
Wind Chill: 52°   Ceiling: Unl
Heat Index: 52°   Visibility: 1.1mi
Dew Point: 46°   Wind: 7mph
Humidity: 82%   Direction: 10°N
Pressure: 30.06"   Gusts: NA
Location:  29.28°N, 106.25°E
Report Text: ZUCK 252000Z 01003MPS 1800 BR NSC 11/08 Q1018 NOSIG
Loading
Personal Weather Stations






























Interactive Weather Map New forecast layout! Learn more

10-Day Weather Forecast

Advertisements
Track Severe Weather on mobile